CST,Max TemperatureF,Mean TemperatureF,Min TemperatureF,Max Dew PointF,MeanDew PointF,Min DewpointF,Max Humidity, Mean Humidity, Min Humidity, Max Sea Level PressureIn, Mean Sea Level PressureIn, Min Sea Level PressureIn, Max VisibilityMiles, Mean VisibilityMiles, Min VisibilityMiles, Max Wind SpeedMPH, Mean Wind SpeedMPH, Max Gust SpeedMPH,PrecipitationIn, CloudCover, Events, WindDirDegrees
2012-12-1,36,32,29,33,32,29,99,94,89,29.90,29.75,29.68,4,2,1,17,10,24,0.00,8,,192
2012-12-2,39,34,30,35,32,30,100,96,84,29.88,29.77,29.53,5,3,0,13,7,,0.00,6,Snow,154
2012-12-3,45,32,17,42,31,10,95,78,66,29.83,29.55,29.41,10,8,4,29,16,36,0.00,4,Rain,230
2012-12-4,19,12,6,10,7,3,87,75,63,30.36,30.15,29.84,10,10,7,20,13,26,0.00,2,Snow,286
2012-12-5,34,20,6,22,13,3,88,70,54,30.34,30.01,29.68,10,10,10,18,8,24,0.00,1,,145
2012-12-6,34,28,21,29,22,16,90,80,62,29.94,29.79,29.63,10,10,4,21,12,30,0.00,7,Rain,264
2012-12-7,24,16,8,19,10,5,89,82,72,30.05,30.01,29.93,10,9,3,13,6,,0.00,4,Snow,312
2012-12-8,25,18,12,22,15,8,94,82,76,30.04,29.99,29.93,10,9,2,10,6,,0.00,8,Snow,114
2012-12-9,23,11,-1,22,7,-5,94,82,68,30.15,30.09,30.03,10,7,2,17,9,24,0.00,7,Snow,357
2012-12-10,13,1,-11,3,-4,-16,87,76,59,30.05,29.85,29.68,10,9,2,8,4,,0.00,3,Snow,151
2012-12-11,10,1,-8,7,-1,-12,85,80,70,29.90,29.77,29.66,10,7,2,15,7,16,0.00,5,Snow,267
2012-12-12,23,9,-5,17,9,-9,92,83,75,29.90,29.81,29.73,10,9,7,14,7,,0.00,5,,132
2012-12-13,20,12,5,15,11,3,92,87,73,30.07,30.02,29.90,10,9,2,8,3,,0.00,5,Snow,359
2012-12-14,28,16,4,21,13,2,93,86,73,30.07,29.94,29.77,10,8,3,14,5,16,0.00,0,Snow,120
2012-12-15,32,26,18,32,27,17,100,96,90,29.77,29.63,29.56,7,4,0,15,5,,0.19,7,Rain-Snow,41
2012-12-16,19,16,12,19,16,11,96,94,92,29.78,29.73,29.63,10,8,1,13,9,,0.00,8,Snow,318
2012-12-17,18,16,14,17,14,13,95,93,93,29.76,29.69,29.64,10,7,2,6,1,,0.00,8,,199
2012-12-18,23,20,16,22,19,14,96,95,93,29.70,29.65,29.61,10,6,2,5,1,,0.00,8,Snow,131
2012-12-19,26,22,17,25,19,15,97,90,80,29.99,29.83,29.70,10,7,2,14,4,,0.00,7,Snow,230
2012-12-20,17,11,4,16,8,2,96,88,81,30.14,30.04,29.98,10,6,1,16,9,20,0.00,8,Snow,326
2012-12-21,13,7,1,7,2,-2,92,87,75,30.23,30.16,30.07,10,8,2,9,5,,0.00,3,Snow,19
2012-12-22,15,9,3,11,6,0,88,85,80,30.12,30.03,29.97,10,9,5,13,5,18,0.00,5,Snow,323
2012-12-23,10,5,0,6,3,-4,88,85,78,30.14,30.11,30.05,10,8,2,9,4,,0.00,6,Snow,349
2012-12-24,4,-4,-12,1,-8,-17,85,82,78,30.29,30.16,30.06,10,10,7,12,8,,0.00,4,,311
2012-12-25,3,-6,-14,-4,-12,-19,87,81,74,30.41,30.37,30.29,10,10,10,8,5,,0.00,2,,275
2012-12-26,9,0,-9,3,-6,-14,90,81,72,30.34,30.27,30.22,10,8,2,6,1,,0.00,4,Snow,138
2012-12-27,16,4,-8,10,3,-12,92,83,69,30.22,30.17,30.12,10,8,1,6,1,,0.00,7,Snow,100
2012-12-28,18,12,5,14,10,4,92,87,78,30.12,30.04,29.97,10,7,3,7,1,,0.00,7,Snow,235
2012-12-29,13,4,-5,11,2,-9,92,84,74,30.05,29.98,29.93,10,8,2,10,6,,0.00,4,Snow,250
2012-12-30,23,8,-6,16,6,-10,90,84,70,30.04,29.93,29.80,10,9,4,21,6,25,0.00,6,Snow,213
2012-12-31,8,-2,-13,5,-9,-18,87,81,69,30.19,30.14,29.96,10,10,7,18,9,,0.00,0,Snow,299